TimePDT,TemperatureF,Dew PointF,Humidity,Sea Level PressureIn,VisibilityMPH,Wind Direction,Wind SpeedMPH,Gust SpeedMPH,PrecipitationIn,Events,Conditions,WindDirDegrees,DateUTC
12:53 AM,61.0,55.9,83,29.95,10.0,Calm,Calm,-,N/A,,Clear,0,2013-07-22 07:53:00
1:53 AM,57.0,54.0,89,29.96,10.0,Calm,Calm,-,N/A,,Clear,0,2013-07-22 08:53:00
2:53 AM,54.0,53.1,97,29.97,10.0,West,3.5,-,N/A,,Clear,270,2013-07-22 09:53:00
3:53 AM,55.0,53.1,93,29.99,10.0,West,4.6,-,N/A,,Clear,260,2013-07-22 10:53:00
4:53 AM,53.1,52.0,96,30.00,10.0,West,4.6,-,N/A,,Clear,270,2013-07-22 11:53:00
5:53 AM,53.1,52.0,96,30.01,10.0,NW,3.5,-,N/A,,Clear,320,2013-07-22 12:53:00
6:53 AM,54.0,53.1,97,30.03,10.0,Calm,Calm,-,N/A,,Clear,0,2013-07-22 13:53:00
7:53 AM,57.9,54.0,87,30.04,10.0,North,5.8,-,N/A,,Clear,10,2013-07-22 14:53:00
8:53 AM,63.0,54.0,72,30.05,10.0,Variable,5.8,-,N/A,,Clear,0,2013-07-22 15:53:00
9:53 AM,66.0,55.0,68,30.05,10.0,ENE,4.6,-,N/A,,Clear,60,2013-07-22 16:53:00
10:53 AM,68.0,55.0,63,30.05,10.0,Variable,4.6,-,N/A,,Clear,0,2013-07-22 17:53:00
11:53 AM,72.0,54.0,53,30.04,10.0,Variable,3.5,-,N/A,,Clear,0,2013-07-22 18:53:00
12:53 PM,75.9,54.0,46,30.02,10.0,Calm,Calm,-,N/A,,Clear,0,2013-07-22 19:53:00
1:53 PM,79.0,53.1,40,30.01,10.0,Variable,5.8,-,N/A,,Clear,0,2013-07-22 20:53:00
2:53 PM,82.0,52.0,35,30.00,10.0,Calm,Calm,-,N/A,,Clear,0,2013-07-22 21:53:00
3:53 PM,84.9,52.0,32,29.98,10.0,Variable,4.6,-,N/A,,Clear,0,2013-07-22 22:53:00
4:53 PM,87.1,52.0,30,29.96,10.0,Variable,3.5,-,N/A,,Clear,0,2013-07-22 23:53:00
5:53 PM,88.0,52.0,29,29.95,10.0,NNE,8.1,-,N/A,,Clear,30,2013-07-23 00:53:00
6:53 PM,86.0,54.0,33,29.94,10.0,NE,8.1,-,N/A,,Clear,40,2013-07-23 01:53:00
7:53 PM,82.9,51.1,33,29.94,10.0,North,8.1,-,N/A,,Clear,360,2013-07-23 02:53:00
8:53 PM,77.0,54.0,45,29.96,10.0,Calm,Calm,-,N/A,,Clear,0,2013-07-23 03:53:00
9:53 PM,73.9,53.1,48,29.98,10.0,Calm,Calm,-,N/A,,Clear,0,2013-07-23 04:53:00
10:53 PM,70.0,55.0,59,29.99,10.0,Calm,Calm,-,N/A,,Clear,0,2013-07-23 05:53:00
11:53 PM,68.0,57.0,68,29.99,10.0,NNE,4.6,-,N/A,,Clear,30,2013-07-23 06:53:00